Latest Coastal Weather Observations for Hopetoun North

IDW60701

Issued at 8:55 am WST Sunday 26 October 2014 (issued every 10 minutes, with the page automatically refreshed every 10 minutes)

About coastal observations | Map of coastal stations | Coastal observations for WA | Marine services | Other Formats
Station Details ID: 009961 Name: HOPETOUN NORTH Lat: -33.93 Lon: 120.13 Height: 26.0 m
Data from the previous 72 hours. | See also: Recent months at Hopetoun North
Date/Time
WST
Temp

°C
Wind Pressure Rain
since 9am
mm
Weather Cloud Vis
km
Sea
Height
m
Swell
Dir
 
Speed
knots
Gust
knots
hPa Trend Height
m
Period
s
Dir
26/08:30am 17.8 WSW 15 22 1018.8 - 0.0 - - - - - - -
26/08:00am 17.9 WSW 15 22 1018.5 - 0.0 - - - - - - -
26/07:48am 17.3 W 15 25 1018.3 - 0.0 - - - - - - -
26/07:30am 16.9 W 12 19 1018.0 - 0.0 - - - - - - -
26/07:00am 16.1 W 11 18 1017.8 - 0.0 - - - - - - -
26/06:30am 15.5 W 10 17 1017.3 - 0.0 - - - - - - -
26/06:00am 14.1 WNW 10 17 1017.0 - 0.0 - - - - - - -
26/05:30am 13.6 WNW 9 14 1016.8 - 0.0 - - - - - - -
26/05:00am 13.6 WNW 9 14 1016.5 - 0.0 - - - - - - -
26/04:30am 13.4 WNW 9 14 1016.1 - 0.0 - - - - - - -
26/04:00am 14.1 W 9 16 1015.9 - 0.0 - - - - - - -
26/03:30am 14.3 W 12 20 1015.7 - 0.0 - - - - - - -
26/03:00am 14.4 W 10 17 1015.5 - 0.0 - - - - - - -
26/02:30am 14.6 W 12 18 1015.4 - 0.0 - - - - - - -
26/02:00am 15.4 W 13 20 1015.3 - 0.0 - - - - - - -
26/01:30am 16.4 WSW 16 22 1015.3 - 0.0 - - - - - - -
26/01:27am 16.3 W 15 22 1015.3 - 0.0 - - - - - - -
26/01:00am 16.0 W 5 8 1015.3 - 0.0 - - - - - - -
26/12:30am 16.5 NNW 1 2 1015.3 - 0.0 - - - - - - -
26/12:00am 16.9 W 2 4 1015.5 - 0.0 - - - - - - -
 
Date/Time
WST
Temp

°C
Wind Pressure Rain
since 9am
mm
Weather Cloud Vis
km
Sea
Height
m
Swell
Dir
 
Speed
knots
Gust
knots
hPa Trend Height
m
Period
s
Dir
25/11:30pm 17.4 SW 4 6 1015.6 - 0.0 - - - - - - -
25/11:00pm 17.6 SW 5 8 1015.5 - 0.0 - - - - - - -
25/10:30pm 17.7 SW 6 8 1015.5 - 0.0 - - - - - - -
25/10:00pm 16.9 SW 4 6 1015.3 - 0.0 - - - - - - -
25/09:30pm 17.1 SW 5 9 1015.5 - 0.0 - - - - - - -
25/09:00pm 17.5 SW 5 8 1015.7 - 0.0 - - - - - - -
25/08:30pm 17.9 SSW 9 13 1015.8 - 0.0 - - - - - - -
25/08:00pm 17.9 SSW 9 15 1015.7 - 0.0 - - - - - - -
25/07:30pm 18.1 SSW 6 10 1015.2 - 0.0 - - - - - - -
25/07:00pm 18.3 SSW 7 12 1014.7 - 0.0 - - - - - - -
25/06:30pm 17.9 S 5 7 1014.2 - 0.0 - - - - - - -
25/06:00pm 18.4 S 4 6 1013.8 - 0.0 - - - - - - -
25/05:30pm 19.9 SSE 4 6 1013.0 - 0.0 - - - - - - -
25/05:00pm 20.3 E 3 5 1012.6 - 0.0 - - - - - - -
25/04:30pm 20.2 SSE 4 7 1012.6 - 0.0 - - - - - - -
25/04:00pm 21.0 S 6 8 1012.6 - 0.0 - - - - - - -
25/03:30pm 20.4 SSE 6 8 1012.3 - 0.0 - - - - - - -
25/03:00pm 20.8 SSE 6 10 1012.2 - 0.0 - - - - - - -
25/02:30pm 20.7 SSE 6 9 1012.1 - 0.0 - - - - - - -
25/02:00pm 20.4 S 8 11 1012.3 - 0.0 - - - - - - -
25/01:30pm 20.9 S 8 11 1012.3 - 0.0 - - - - - - -
25/01:00pm 21.0 S 8 12 1012.4 - 0.0 - - - - - - -
25/12:30pm 21.3 S 7 10 1012.3 - 0.0 - - - - - - -
25/12:00pm 21.6 SSW 7 10 1012.3 - 0.0 - - - - - - -
25/11:30am 20.9 SSW 8 11 1012.7 - 0.0 - - - - - - -
25/11:00am 19.9 SW 9 12 1012.8 - 0.0 - - - - - - -
25/10:30am 19.0 SW 13 17 1013.1 - 0.0 - - - - - - -
25/10:00am 18.8 SW 14 18 1013.2 - 0.0 - - - - - - -
25/09:30am 19.1 SW 11 15 1013.4 - 0.0 - - - - - - -
25/09:00am 18.6 SW 9 13 1013.4 - 0.0 - - - - - - -
25/08:30am 18.7 WSW 10 13 1013.5 - 0.0 - - - - - - -
25/08:00am 17.6 W 8 11 1013.2 - 0.0 - - - - - - -
25/07:30am 16.8 W 7 11 1013.3 - 0.0 - - - - - - -
25/07:00am 16.5 W 6 9 1013.3 - 0.0 - - - - - - -
25/06:30am 15.9 W 4 7 1013.4 - 0.0 - - - - - - -
25/06:00am 15.1 WSW 1 2 1013.5 - 0.0 - - - - - - -
25/05:30am 14.8 CALM 0 0 1013.2 - 0.0 - - - - - - -
25/05:00am 14.7 ENE 3 5 1013.3 - 0.0 - - - - - - -
25/04:30am 14.8 E 3 4 1013.3 - 0.0 - - - - - - -
25/04:00am 14.9 ENE 3 5 1013.3 - 0.0 - - - - - - -
25/03:30am 15.0 NE 4 6 1013.1 - 0.0 - - - - - - -
25/03:00am 15.0 NE 5 7 1013.3 - 0.0 - - - - - - -
25/02:30am 15.1 NE 5 8 1013.2 - 0.0 - - - - - - -
25/02:00am 15.2 ENE 8 11 1013.1 - 0.0 - - - - - - -
25/01:30am 15.2 NE 6 9 1013.6 - 0.0 - - - - - - -
25/01:00am 15.4 NE 5 7 1013.7 - 0.0 - - - - - - -
25/12:30am 15.7 NE 5 7 1013.8 - 0.0 - - - - - - -
25/12:00am 16.2 NE 4 6 1014.4 - 0.0 - - - - - - -
 
Date/Time
WST
Temp

°C
Wind Pressure Rain
since 9am
mm
Weather Cloud Vis
km
Sea
Height
m
Swell
Dir
 
Speed
knots
Gust
knots
hPa Trend Height
m
Period
s
Dir
24/11:30pm 16.6 ENE 5 9 1014.5 - 0.0 - - - - - - -
24/11:00pm 16.6 ENE 7 10 1014.8 - 0.0 - - - - - - -
24/10:30pm 16.6 ENE 10 14 1014.9 - 0.0 - - - - - - -
24/10:00pm 16.7 ENE 9 12 1015.4 - 0.0 - - - - - - -
24/09:30pm 16.6 E 7 10 1015.7 - 0.0 - - - - - - -
24/09:00pm 16.6 E 6 10 1015.9 - 0.0 - - - - - - -
24/08:30pm 16.5 E 6 10 1015.9 - 0.0 - - - - - - -
24/08:00pm 16.5 E 8 13 1015.9 - 0.0 - - - - - - -
24/07:30pm 16.3 E 7 10 1015.8 - 0.0 - - - - - - -
24/07:00pm 16.4 E 7 10 1015.6 - 0.0 - - - - - - -
24/06:30pm 16.4 E 8 13 1015.4 - 0.0 - - - - - - -
24/06:00pm 16.6 E 11 17 1015.1 - 0.0 - - - - - - -
24/05:30pm 17.2 E 13 20 1014.9 - 0.0 - - - - - - -
24/05:00pm 17.6 ESE 13 20 1014.9 - 0.0 - - - - - - -
24/04:30pm 18.1 ESE 13 20 1015.0 - 0.0 - - - - - - -
24/04:00pm 18.5 ESE 14 21 1015.1 - 0.0 - - - - - - -
24/03:30pm 18.6 ESE 15 20 1015.2 - 0.0 - - - - - - -
24/03:00pm 19.0 ESE 13 17 1015.4 - 0.0 - - - - - - -
24/02:30pm 19.2 ESE 12 17 1015.7 - 0.0 - - - - - - -
24/02:00pm 19.2 SE 12 16 1016.2 - 0.0 - - - - - - -
24/01:30pm 19.1 SE 12 17 1016.6 - 0.0 - - - - - - -
24/01:00pm 19.4 SE 10 15 1017.0 - 0.0 - - - - - - -
24/12:30pm 19.5 SE 9 15 1017.2 - 0.0 - - - - - - -
24/12:00pm 18.7 SSE 9 11 1017.6 - 0.0 - - - - - - -
24/11:30am 17.8 SSE 7 11 1018.1 - 0.0 - - - - - - -
24/11:00am 18.4 SE 7 10 1018.2 - 0.0 - - - - - - -
24/10:30am 18.1 SSE 5 7 1018.3 - 0.0 - - - - - - -
24/10:00am 17.8 SSW 2 4 1018.5 - 0.0 - - - - - - -
24/09:30am 17.4 WSW 3 4 1018.6 - 0.0 - - - - - - -
24/09:00am 17.1 NE 1 4 1018.8 - 2.6 - - - - - - -
24/08:30am 16.9 SE 3 4 1018.6 - 2.6 - - - - - - -
24/08:00am 16.6 S 3 5 1018.5 - 2.6 - - - - - - -
24/07:30am 16.4 SSE 5 8 1018.4 - 2.6 - - - - - - -
24/07:00am 16.3 S 6 8 1018.2 - 2.6 - - - - - - -
24/06:30am 16.1 S 7 11 1018.1 - 2.6 - - - - - - -
24/06:00am 16.0 S 7 9 1018.0 - 2.6 - - - - - - -
24/05:30am 15.9 S 7 10 1017.8 - 2.6 - - - - - - -
24/05:00am 15.8 S 8 11 1017.4 - 2.6 - - - - - - -
24/04:30am 15.8 S 7 10 1017.2 - 2.6 - - - - - - -
24/04:00am 15.7 S 9 13 1017.0 - 2.6 - - - - - - -
24/03:30am 15.8 SSW 10 14 1017.0 - 2.6 - - - - - - -
24/03:00am 15.5 SSW 8 11 1017.1 - 2.6 - - - - - - -
24/02:30am 15.4 SSW 10 14 1016.9 - 2.6 - - - - - - -
24/02:00am 15.4 SSW 9 12 1016.9 - 2.6 - - - - - - -
24/01:30am 14.9 SSW 11 16 1017.0 - 2.6 - - - - - - -
24/01:00am 15.6 SSW 9 13 1017.1 - 2.2 - - - - - - -
24/12:30am 15.1 SSW 12 18 1017.0 - 2.2 - - - - - - -
24/12:00am 15.2 SSW 14 20 1016.8 - 2.0 Rain - - - - - -
 
Date/Time
WST
Temp

°C
Wind Pressure Rain
since 9am
mm
Weather Cloud Vis
km
Sea
Height
m
Swell
Dir
 
Speed
knots
Gust
knots
hPa Trend Height
m
Period
s
Dir
23/11:30pm 15.2 SW 15 22 1016.9 - 1.8 - - - - - - -
23/11:00pm 15.6 SW 15 22 1016.8 - 0.6 - - - - - - -
23/10:30pm 16.6 WSW 17 25 1016.8 - 0.0 - - - - - - -
23/10:00pm 16.8 WSW 14 21 1016.7 - 0.0 - - - - - - -
23/09:30pm 17.1 WSW 15 19 1016.5 - 0.0 - - - - - - -
23/09:00pm 17.8 WSW 13 20 1016.4 - 0.0 - - - - - - -
23/08:30pm 17.8 SW 13 18 1016.1 - 0.0 - - - - - - -
23/08:00pm 18.2 SW 13 19 1015.8 - 0.0 - - - - - - -
23/07:30pm 18.4 SW 15 21 1015.2 - 0.0 - - - - - - -
23/07:00pm 18.5 SW 15 22 1014.3 - 0.0 - - - - - - -
23/06:30pm 18.3 SSW 12 17 1013.7 - 0.0 - - - - - - -
23/06:00pm 18.7 SW 14 19 1013.2 - 0.0 - - - - - - -
23/05:30pm 18.8 SSW 14 18 1012.7 - 0.0 - - - - - - -
23/05:00pm 19.6 SSW 13 17 1012.3 - 0.0 - - - - - - -
23/04:30pm 19.1 SSW 13 19 1011.8 - 0.0 - - - - - - -
23/04:00pm 20.2 SSW 14 18 1011.4 - 0.0 - - - - - - -
23/03:30pm 20.6 SSW 15 20 1011.1 - 0.0 - - - - - - -
23/03:00pm 20.7 SSW 10 15 1010.7 - 0.0 - - - - - - -
23/02:30pm 21.4 SSW 10 15 1010.4 - 0.0 - - - - - - -
23/02:00pm 25.1 WSW 14 21 1010.1 - 0.0 - - - - - - -
23/01:30pm 25.3 W 15 22 1010.1 - 0.0 - - - - - - -
23/01:00pm 25.9 W 16 24 1010.2 - 0.0 - - - - - - -
23/12:40pm 25.5 W 15 25 1010.1 - 0.0 - - - - - - -
23/12:30pm 25.7 W 17 25 1010.1 - 0.0 - - - - - - -
23/12:00pm 25.4 WNW 14 23 1010.0 - 0.0 - - - - - - -
23/11:30am 24.3 W 16 26 1010.1 - 0.0 - - - - - - -
23/11:12am 24.8 W 15 28 1010.2 - 0.0 - - - - - - -
23/11:00am 24.4 W 16 24 1010.2 - 0.0 - - - - - - -
23/10:42am 24.0 WNW 15 26 1010.3 - 0.0 - - - - - - -
23/10:30am 23.6 WNW 16 24 1010.4 - 0.0 - - - - - - -
23/10:00am 22.1 W 16 26 1010.5 - 0.0 - - - - - - -
23/09:58am 22.4 W 16 26 1010.6 - 0.0 - - - - - - -
23/09:30am 23.2 WNW 15 24 1010.6 - 0.0 - - - - - - -
23/09:00am 21.9 W 16 25 1010.6 - 0.8 - - - - - - -

Other Formats:

Comma delimited format used in spreadsheet applications
http://www.bom.gov.au/fwo/IDW60701/IDW60701.95635.axf

JavaScript Object Notation format (JSON) in row-major order
http://www.bom.gov.au/fwo/IDW60701/IDW60701.95635.json